Station History

Weather Underground - logo

Station Historical Data
Daily Summary for December 19, 2017 Units:  English    Metric   Both
« Previous Day
Next Day »
Daily Weekly Monthly Yearly Custom
  High: Low: Average:
Temperature: 65.0 °F 32.8 °F 46 °F
Dew Point: 38.6 °F 29.4 °F 33.7 °F
Humidity: 90 % 29 % 67 %
Wind Speed: 3.5 mph 0.0 mph 0.2 mph
Wind Gust: 3.5 mph - -
Wind:- - WSW
Pressure: 30.26 in 30.13 in -
Precipitation: 0.00 in    
Historical Graphs
 
 
Tabular Data for December 19, 2017
Time Temperature Dew Point Pressure Wind Wind Speed Wind Gust Humidity Rainfall Rate (Hourly)
00:03 36.7 °F 32.9 °F 30.23 in Calm     86 % 0.00 in
00:08 36.7 °F 32.9 °F 30.23 in Calm     86 % 0.00 in
00:11 36.6 °F 32.8 °F 30.23 in Calm     86 % 0.00 in
00:16 36.5 °F 32.7 °F 30.22 in Calm     86 % 0.00 in
00:19 36.3 °F 32.2 °F 30.22 in Calm     85 % 0.00 in
00:24 36.2 °F 32.4 °F 30.22 in Calm     86 % 0.00 in
00:26 36.2 °F 32.4 °F 30.22 in Calm     86 % 0.00 in
00:31 36.1 °F 32.6 °F 30.22 in Calm     87 % 0.00 in
00:32 36.1 °F 32.6 °F 30.22 in Calm     87 % 0.00 in
00:37 36.0 °F 32.5 °F 30.22 in Calm     87 % 0.00 in
00:38 36.0 °F 32.5 °F 30.22 in Calm     87 % 0.00 in
00:43 36.0 °F 32.2 °F 30.22 in Calm     86 % 0.00 in
00:44 36.0 °F 32.2 °F 30.22 in Calm     86 % 0.00 in
00:45 35.9 °F 32.1 °F 30.22 in Calm     86 % 0.00 in
00:51 35.9 °F 32.1 °F 30.22 in Calm     86 % 0.00 in
00:55 35.8 °F 32.3 °F 30.22 in Calm     87 % 0.00 in
00:59 35.7 °F 31.9 °F 30.21 in Calm     86 % 0.00 in
01:04 35.5 °F 32.0 °F 30.21 in Calm     87 % 0.00 in
01:09 35.4 °F 31.9 °F 30.21 in Calm     87 % 0.00 in
01:10 35.5 °F 32.0 °F 30.21 in Calm     87 % 0.00 in
01:11 35.5 °F 32.0 °F 30.21 in Calm     87 % 0.00 in
01:16 35.6 °F 31.8 °F 30.21 in Calm     86 % 0.00 in
01:19 35.5 °F 31.7 °F 30.21 in Calm     86 % 0.00 in
01:22 35.4 °F 31.6 °F 30.21 in Calm     86 % 0.00 in
01:24 35.4 °F 31.6 °F 30.21 in Calm     86 % 0.00 in
01:29 35.0 °F 30.9 °F 30.21 in Calm     85 % 0.00 in
01:31 34.9 °F 31.1 °F 30.21 in Calm     86 % 0.00 in
01:36 34.6 °F 30.8 °F 30.21 in Calm     86 % 0.00 in
01:37 34.6 °F 30.8 °F 30.21 in Calm     86 % 0.00 in
01:38 34.6 °F 31.1 °F 30.21 in Calm     87 % 0.00 in
01:43 34.6 °F 31.1 °F 30.21 in Calm     87 % 0.00 in
01:44 34.5 °F 31.0 °F 30.21 in Calm     87 % 0.00 in
01:49 34.5 °F 31.3 °F 30.21 in Calm     88 % 0.00 in
01:54 34.4 °F 31.2 °F 30.21 in Calm     88 % 0.00 in
01:59 34.5 °F 31.3 °F 30.21 in Calm     88 % 0.00 in
02:01 34.5 °F 31.3 °F 30.21 in Calm     88 % 0.00 in
02:02 34.6 °F 31.4 °F 30.21 in Calm     88 % 0.00 in
02:07 34.6 °F 31.4 °F 30.21 in Calm     88 % 0.00 in
02:09 34.7 °F 31.5 °F 30.21 in Calm     88 % 0.00 in
02:12 34.8 °F 31.6 °F 30.21 in Calm     88 % 0.00 in
02:17 34.8 °F 31.3 °F 30.21 in Calm     87 % 0.00 in
02:19 34.7 °F 31.2 °F 30.21 in Calm     87 % 0.00 in
02:24 34.6 °F 31.1 °F 30.21 in Calm     87 % 0.00 in
02:25 34.6 °F 31.1 °F 30.21 in Calm     87 % 0.00 in
02:28 34.5 °F 31.0 °F 30.21 in Calm     87 % 0.00 in
02:33 34.5 °F 31.0 °F 30.21 in Calm     87 % 0.00 in
02:38 34.5 °F 31.3 °F 30.21 in Calm     88 % 0.00 in
02:43 34.4 °F 31.2 °F 30.21 in Calm     88 % 0.00 in
02:44 34.3 °F 31.1 °F 30.21 in Calm     88 % 0.00 in
02:46 34.3 °F 31.1 °F 30.21 in Calm     88 % 0.00 in
02:50 34.3 °F 31.1 °F 30.21 in Calm     88 % 0.00 in
02:55 34.3 °F 31.1 °F 30.21 in Calm     88 % 0.00 in
02:56 34.3 °F 31.1 °F 30.21 in Calm     88 % 0.00 in
03:00 34.3 °F 31.1 °F 30.21 in Calm     88 % 0.00 in
03:03 34.3 °F 31.1 °F 30.21 in Calm     88 % 0.00 in
03:08 34.4 °F 31.2 °F 30.21 in Calm     88 % 0.00 in
03:13 34.5 °F 31.3 °F 30.21 in Calm     88 % 0.00 in
03:14 34.5 °F 31.3 °F 30.21 in Calm     88 % 0.00 in
03:18 34.5 °F 31.0 °F 30.21 in Calm     87 % 0.00 in
03:20 34.5 °F 31.0 °F 30.21 in Calm     87 % 0.00 in
03:25 34.5 °F 31.0 °F 30.21 in Calm     87 % 0.00 in
03:26 34.5 °F 31.0 °F 30.21 in Calm     87 % 0.00 in
03:27 34.5 °F 31.0 °F 30.21 in Calm     87 % 0.00 in
03:32 34.6 °F 31.1 °F 30.21 in Calm     87 % 0.00 in
03:37 34.6 °F 31.1 °F 30.21 in Calm     87 % 0.00 in
03:44 34.3 °F 30.5 °F 30.21 in Calm     86 % 0.00 in
03:47 34.1 °F 30.4 °F 30.21 in Calm     86 % 0.00 in
03:51 33.9 °F 30.4 °F 30.21 in Calm     87 % 0.00 in
03:56 33.9 °F 30.4 °F 30.20 in Calm     87 % 0.00 in
03:59 33.8 °F 30.3 °F 30.20 in Calm     87 % 0.00 in
04:04 33.9 °F 30.7 °F 30.20 in Calm     88 % 0.00 in
04:08 34.0 °F 30.5 °F 30.20 in Calm     87 % 0.00 in
04:11 34.1 °F 30.6 °F 30.20 in Calm     87 % 0.00 in
04:14 34.2 °F 30.7 °F 30.20 in Calm     87 % 0.00 in
04:17 34.1 °F 30.4 °F 30.20 in Calm     86 % 0.00 in
04:20 34.0 °F 30.3 °F 30.20 in Calm     86 % 0.00 in
04:25 34.1 °F 30.4 °F 30.20 in Calm     86 % 0.00 in
04:28 34.1 °F 30.4 °F 30.20 in Calm     86 % 0.00 in
04:33 34.1 °F 30.1 °F 30.20 in Calm     85 % 0.00 in
04:38 34.0 °F 30.3 °F 30.21 in Calm     86 % 0.00 in
04:39 33.9 °F 30.2 °F 30.20 in Calm     86 % 0.00 in
04:43 33.8 °F 30.1 °F 30.21 in Calm     86 % 0.00 in
04:44 33.8 °F 30.1 °F 30.21 in Calm     86 % 0.00 in
04:45 33.8 °F 30.1 °F 30.21 in Calm     86 % 0.00 in
04:50 33.9 °F 30.2 °F 30.21 in Calm     86 % 0.00 in
04:51 33.8 °F 30.1 °F 30.21 in Calm     86 % 0.00 in
04:56 33.8 °F 30.1 °F 30.21 in Calm     86 % 0.00 in
04:57 33.8 °F 30.1 °F 30.21 in Calm     86 % 0.00 in
05:02 34.0 °F 30.3 °F 30.21 in NNW 1.2 mph   86 % 0.00 in
05:06 34.3 °F 30.3 °F 30.21 in Calm     85 % 0.00 in
05:10 34.4 °F 30.1 °F 30.21 in Calm     84 % 0.00 in
05:13 34.4 °F 30.1 °F 30.21 in Calm     84 % 0.00 in
05:16 34.5 °F 30.2 °F 30.21 in NNW 1.2 mph   84 % 0.00 in
05:19 34.5 °F 30.2 °F 30.21 in Calm     84 % 0.00 in
05:24 34.5 °F 30.2 °F 30.21 in Calm     84 % 0.00 in
05:29 34.4 °F 30.1 °F 30.21 in Calm     84 % 0.00 in
05:34 34.2 °F 29.9 °F 30.21 in Calm     84 % 0.00 in
05:38 34.0 °F 29.7 °F 30.21 in Calm     84 % 0.00 in
05:43 33.7 °F 29.7 °F 30.21 in Calm     85 % 0.00 in
05:45 33.6 °F 29.6 °F 30.21 in Calm     85 % 0.00 in
05:50 33.4 °F 29.7 °F 30.21 in Calm     86 % 0.00 in
05:51 33.4 °F 29.7 °F 30.21 in Calm     86 % 0.00 in
05:56 33.4 °F 29.9 °F 30.21 in Calm     87 % 0.00 in
05:57 33.4 °F 29.9 °F 30.22 in Calm     87 % 0.00 in
06:02 33.6 °F 30.1 °F 30.22 in Calm     87 % 0.00 in
06:05 33.7 °F 30.0 °F 30.22 in Calm     86 % 0.00 in
06:08 33.7 °F 30.0 °F 30.22 in Calm     86 % 0.00 in
06:13 33.7 °F 30.0 °F 30.22 in Calm     86 % 0.00 in
06:15 33.9 °F 30.4 °F 30.22 in Calm     87 % 0.00 in
06:20 34.1 °F 30.4 °F 30.22 in Calm     86 % 0.00 in
06:25 34.2 °F 30.2 °F 30.22 in Calm     85 % 0.00 in
06:26 34.2 °F 30.2 °F 30.22 in Calm     85 % 0.00 in
06:27 34.3 °F 30.3 °F 30.22 in Calm     85 % 0.00 in
06:32 34.2 °F 30.2 °F 30.22 in Calm     85 % 0.00 in
06:33 34.2 °F 30.2 °F 30.22 in Calm     85 % 0.00 in
06:38 34.0 °F 30.0 °F 30.22 in Calm     85 % 0.00 in
06:42 33.8 °F 30.1 °F 30.23 in Calm     86 % 0.00 in
06:47 33.4 °F 29.4 °F 30.23 in Calm     85 % 0.00 in
06:50 33.3 °F 29.6 °F 30.23 in Calm     86 % 0.00 in
06:55 33.2 °F 29.5 °F 30.23 in Calm     86 % 0.00 in
06:59 33.1 °F 29.4 °F 30.23 in Calm     86 % 0.00 in
07:02 33.0 °F 29.6 °F 30.23 in Calm     87 % 0.00 in
07:05 32.9 °F 29.5 °F 30.23 in Calm     87 % 0.00 in
07:10 32.9 °F 29.5 °F 30.23 in Calm     87 % 0.00 in
07:13 32.9 °F 29.5 °F 30.23 in Calm     87 % 0.00 in
07:16 32.9 °F 29.5 °F 30.23 in Calm     87 % 0.00 in
07:21 32.9 °F 29.5 °F 30.23 in Calm     87 % 0.00 in
07:23 32.8 °F 29.4 °F 30.23 in Calm     87 % 0.00 in
07:28 32.8 °F 29.4 °F 30.24 in Calm     87 % 0.00 in
07:29 32.8 °F 29.4 °F 30.24 in Calm     87 % 0.00 in
07:34 32.8 °F 29.4 °F 30.24 in Calm     87 % 0.00 in
07:35 32.8 °F 29.4 °F 30.24 in Calm     87 % 0.00 in
07:37 32.8 °F 29.4 °F 30.24 in Calm     87 % 0.00 in
07:41 32.9 °F 29.7 °F 30.24 in Calm     88 % 0.00 in
07:46 33.2 °F 30.0 °F 30.24 in Calm     88 % 0.00 in
07:47 33.2 °F 30.0 °F 30.24 in Calm     88 % 0.00 in
07:52 33.5 °F 30.3 °F 30.25 in Calm     88 % 0.00 in
07:55 33.7 °F 30.8 °F 30.25 in Calm     89 % 0.00 in
08:00 34.2 °F 31.3 °F 30.25 in Calm     89 % 0.00 in
08:01 34.4 °F 31.5 °F 30.25 in Calm     89 % 0.00 in
08:07 35.6 °F 33.0 °F 30.25 in Calm     90 % 0.00 in
08:08 35.9 °F 32.7 °F 30.25 in Calm     88 % 0.00 in
08:13 37.1 °F 33.9 °F 30.25 in Calm     88 % 0.00 in
08:18 39.3 °F 35.2 °F 30.25 in Calm     85 % 0.00 in
08:19 39.4 °F 35.3 °F 30.25 in Calm     85 % 0.00 in
08:24 40.7 °F 35.9 °F 30.25 in Calm     83 % 0.00 in
08:29 42.4 °F 37.0 °F 30.25 in Calm     81 % 0.00 in
08:30 42.7 °F 37.0 °F 30.25 in Calm     80 % 0.00 in
08:35 44.4 °F 37.6 °F 30.25 in Calm     77 % 0.00 in
08:36 44.5 °F 37.7 °F 30.25 in Calm     77 % 0.00 in
08:41 45.9 °F 37.7 °F 30.25 in Calm     73 % 0.00 in
08:46 46.1 °F 38.3 °F 30.25 in Calm     74 % 0.00 in
08:48 46.2 °F 38.0 °F 30.25 in Calm     73 % 0.00 in
08:50 46.5 °F 38.0 °F 30.25 in Calm     72 % 0.00 in
08:55 47.8 °F 38.5 °F 30.25 in Calm     70 % 0.00 in
08:57 48.3 °F 38.6 °F 30.25 in Calm     69 % 0.00 in
08:59 48.6 °F 38.5 °F 30.26 in Calm     68 % 0.00 in
09:02 48.8 °F 37.6 °F 30.26 in Calm     65 % 0.00 in
09:08 48.6 °F 36.6 °F 30.26 in Calm     63 % 0.00 in
09:09 48.6 °F 36.2 °F 30.26 in Calm     62 % 0.00 in
09:13 48.8 °F 35.9 °F 30.26 in Calm     61 % 0.00 in
09:17 49.3 °F 36.4 °F 30.26 in Calm     61 % 0.00 in
09:18 49.6 °F 36.7 °F 30.26 in Calm     61 % 0.00 in
09:23 50.3 °F 36.1 °F 30.26 in Calm     58 % 0.00 in
09:25 50.5 °F 36.7 °F 30.26 in Calm     59 % 0.00 in
09:30 51.9 °F 36.2 °F 30.26 in Calm     55 % 0.00 in
09:34 52.8 °F 35.6 °F 30.26 in Calm     52 % 0.00 in
09:35 53.1 °F 35.4 °F 30.26 in Calm     51 % 0.00 in
09:40 53.6 °F 35.9 °F 30.26 in Calm     51 % 0.00 in
09:45 54.1 °F 35.9 °F 30.26 in SSE 1.2 mph 1.2 mph 50 % 0.00 in
09:46 54.5 °F 36.2 °F 30.26 in Calm   0.1 mph 50 % 0.00 in
09:51 55.3 °F 35.4 °F 30.26 in SSE 2.3 mph 2.3 mph 47 % 0.00 in
09:52 55.3 °F 35.4 °F 30.26 in SSE 1.2 mph 1.2 mph 47 % 0.00 in
09:57 55.6 °F 35.1 °F 30.26 in SSE 1.2 mph 1.2 mph 46 % 0.00 in
09:58 55.6 °F 35.7 °F 30.26 in Calm   0.5 mph 47 % 0.00 in
10:04 55.8 °F 36.4 °F 30.26 in SE 1.2 mph 1.2 mph 48 % 0.00 in
10:07 56.1 °F 35.6 °F 30.26 in Calm     46 % 0.00 in
10:12 56.1 °F 35.0 °F 30.26 in ESE 2.3 mph   45 % 0.00 in
10:16 56.4 °F 35.9 °F 30.26 in SE 1.2 mph   46 % 0.00 in
10:19 56.6 °F 34.9 °F 30.26 in East 1.2 mph 1.2 mph 44 % 0.00 in
10:24 56.7 °F 34.4 °F 30.25 in NW 1.2 mph   43 % 0.00 in
10:26 56.5 °F 34.8 °F 30.25 in Calm     44 % 0.00 in
10:31 56.6 °F 34.9 °F 30.25 in NW 1.2 mph 1.2 mph 44 % 0.00 in
10:32 56.6 °F 34.3 °F 30.25 in WNW 1.2 mph 1.2 mph 43 % 0.00 in
10:37 57.0 °F 35.3 °F 30.25 in Calm     44 % 0.00 in
10:38 57.1 °F 35.4 °F 30.25 in Calm     44 % 0.00 in
10:43 57.9 °F 34.9 °F 30.25 in Calm     42 % 0.00 in
10:44 58.0 °F 35.0 °F 30.25 in SSE 1.2 mph 1.2 mph 42 % 0.00 in
10:48 58.3 °F 35.3 °F 30.24 in Calm     42 % 0.00 in
10:49 58.3 °F 35.3 °F 30.24 in NW 2.0 mph 2.0 mph 42 % 0.00 in
10:54 58.2 °F 34.6 °F 30.24 in Calm     41 % 0.00 in
10:57 58.5 °F 34.9 °F 30.24 in Calm   0.4 mph 41 % 0.00 in
11:01 59.0 °F 34.7 °F 30.24 in NW 2.3 mph 2.3 mph 40 % 0.00 in
11:06 58.8 °F 34.5 °F 30.24 in SE 1.2 mph 1.2 mph 40 % 0.00 in
11:07 58.9 °F 35.2 °F 30.24 in Calm     41 % 0.00 in
11:12 59.6 °F 34.6 °F 30.23 in Calm     39 % 0.00 in
11:15 59.8 °F 36.0 °F 30.23 in SSE 1.0 mph 1.0 mph 41 % 0.00 in
11:17 59.9 °F 35.5 °F 30.23 in Calm     40 % 0.00 in
11:22 60.0 °F 35.6 °F 30.23 in Calm     40 % 0.00 in
11:23 60.1 °F 35.7 °F 30.23 in Calm     40 % 0.00 in
11:24 60.2 °F 35.8 °F 30.23 in NW 1.2 mph 1.2 mph 40 % 0.00 in
11:30 60.0 °F 35.0 °F 30.22 in NW 2.3 mph 2.3 mph 39 % 0.00 in
11:32 59.9 °F 35.5 °F 30.22 in Calm     40 % 0.00 in
11:37 59.7 °F 35.3 °F 30.22 in Calm     40 % 0.00 in
11:38 59.7 °F 35.3 °F 30.22 in WNW 1.0 mph 1.0 mph 40 % 0.00 in
11:43 59.7 °F 34.0 °F 30.22 in WNW 3.0 mph 3.0 mph 38 % 0.00 in
11:44 59.7 °F 34.0 °F 30.22 in WNW 3.5 mph 3.5 mph 38 % 0.00 in
11:49 59.8 °F 34.1 °F 30.22 in West 1.2 mph 1.2 mph 38 % 0.00 in
11:50 59.9 °F 33.5 °F 30.21 in West 1.2 mph   37 % 0.00 in
11:55 60.1 °F 33.0 °F 30.21 in NW 1.2 mph 1.2 mph 36 % 0.00 in
11:57 60.2 °F 32.4 °F 30.21 in Calm   0.2 mph 35 % 0.00 in
12:01 60.3 °F 33.9 °F 30.21 in NW 1.2 mph 1.2 mph 37 % 0.00 in
12:05 60.4 °F 34.0 °F 30.21 in Calm     37 % 0.00 in
12:10 60.7 °F 34.9 °F 30.21 in NW 2.0 mph 2.0 mph 38 % 0.00 in
12:13 60.9 °F 33.7 °F 30.21 in WNW 1.2 mph 1.2 mph 36 % 0.00 in
12:17 61.0 °F 34.5 °F 30.20 in NW 1.2 mph   37 % 0.00 in
12:23 61.6 °F 35.1 °F 30.20 in East 1.0 mph   37 % 0.00 in
12:25 61.7 °F 35.1 °F 30.20 in East 1.2 mph   37 % 0.00 in
12:30 62.2 °F 34.2 °F 30.20 in North 1.2 mph 1.2 mph 35 % 0.00 in
12:35 62.5 °F 35.2 °F 30.19 in Calm     36 % 0.00 in
12:40 63.1 °F 35.7 °F 30.19 in Calm     36 % 0.00 in
12:44 63.8 °F 34.9 °F 30.19 in Calm     34 % 0.00 in
12:46 64.1 °F 35.1 °F 30.19 in Calm     34 % 0.00 in
12:51 64.0 °F 33.5 °F 30.19 in NNW 2.3 mph 2.3 mph 32 % 0.00 in
12:53 63.9 °F 33.4 °F 30.19 in Calm     32 % 0.00 in
12:58 63.9 °F 33.4 °F 30.19 in NW 2.3 mph 2.3 mph 32 % 0.00 in
13:02 64.0 °F 33.5 °F 30.19 in Calm     32 % 0.00 in
13:05 64.2 °F 33.7 °F 30.19 in SE 1.2 mph 1.2 mph 32 % 0.00 in
13:10 64.6 °F 34.1 °F 30.18 in NW 1.2 mph 1.2 mph 32 % 0.00 in
13:11 64.6 °F 33.3 °F 30.18 in NW 2.0 mph 2.0 mph 31 % 0.00 in
13:16 64.4 °F 33.1 °F 30.18 in NW 2.3 mph 2.3 mph 31 % 0.00 in
13:18 64.3 °F 32.2 °F 30.18 in Calm     30 % 0.00 in
13:20 64.2 °F 31.3 °F 30.18 in West 1.2 mph 1.2 mph 29 % 0.00 in
13:25 64.1 °F 32.0 °F 30.17 in Calm     30 % 0.00 in
13:26 64.1 °F 32.8 °F 30.17 in Calm     31 % 0.00 in
13:27 64.1 °F 32.8 °F 30.17 in Calm     31 % 0.00 in
13:32 64.3 °F 33.0 °F 30.17 in Calm     31 % 0.00 in
13:33 64.3 °F 33.0 °F 30.17 in SE 1.2 mph   31 % 0.00 in
13:38 64.8 °F 34.2 °F 30.17 in Calm     32 % 0.00 in
13:43 65.0 °F 32.8 °F 30.17 in Calm     30 % 0.00 in
13:48 65.0 °F 32.8 °F 30.16 in Calm     30 % 0.00 in
13:49 65.0 °F 31.9 °F 30.16 in Calm     29 % 0.00 in
13:53 64.7 °F 32.5 °F 30.16 in Calm     30 % 0.00 in
13:54 64.6 °F 32.4 °F 30.16 in WNW 2.3 mph 2.3 mph 30 % 0.00 in
13:59 64.5 °F 32.4 °F 30.16 in Calm     30 % 0.00 in
14:01 64.5 °F 32.4 °F 30.16 in WNW 1.2 mph 1.2 mph 30 % 0.00 in
14:03 64.5 °F 32.4 °F 30.16 in WNW 1.2 mph   30 % 0.00 in
14:07 64.5 °F 33.2 °F 30.16 in Calm     31 % 0.00 in
15:08 64.3 °F 32.2 °F 30.15 in WSW 1.2 mph 1.2 mph 30 % 0.00 in
15:10 64.3 °F 33.0 °F 30.15 in Calm     31 % 0.00 in
15:11 64.3 °F 33.8 °F 30.15 in WSW 1.2 mph   32 % 0.00 in
15:16 64.2 °F 32.1 °F 30.15 in Calm     30 % 0.00 in
15:20 64.1 °F 32.8 °F 30.14 in Calm     31 % 0.00 in
15:22 64.1 °F 32.8 °F 30.14 in Calm     31 % 0.00 in
15:27 63.9 °F 33.4 °F 30.14 in SSW 1.2 mph   32 % 0.00 in
15:29 63.8 °F 33.4 °F 30.14 in Calm     32 % 0.00 in
15:34 63.6 °F 33.2 °F 30.14 in SSW 1.2 mph   32 % 0.00 in
15:36 63.5 °F 33.1 °F 30.14 in Calm     32 % 0.00 in
15:41 63.3 °F 32.1 °F 30.14 in Calm     31 % 0.00 in
15:46 63.2 °F 35.8 °F 30.14 in Calm     36 % 0.00 in
15:48 63.1 °F 35.0 °F 30.14 in Calm     35 % 0.00 in
15:53 62.6 °F 35.3 °F 30.14 in Calm     36 % 0.00 in
15:54 62.6 °F 35.3 °F 30.14 in Calm     36 % 0.00 in
15:57 62.2 °F 36.3 °F 30.14 in Calm     38 % 0.00 in
16:02 61.7 °F 35.8 °F 30.14 in Calm     38 % 0.00 in
16:03 61.6 °F 35.7 °F 30.14 in Calm     38 % 0.00 in
16:08 61.2 °F 36.7 °F 30.13 in Calm     40 % 0.00 in
16:09 61.1 °F 36.6 °F 30.13 in Calm     40 % 0.00 in
16:14 60.5 °F 36.0 °F 30.14 in Calm     40 % 0.00 in
16:19 59.9 °F 36.7 °F 30.14 in Calm     42 % 0.00 in
16:20 59.9 °F 36.7 °F 30.14 in Calm     42 % 0.00 in
16:25 59.3 °F 36.8 °F 30.13 in Calm     43 % 0.00 in
16:26 59.2 °F 36.7 °F 30.13 in Calm     43 % 0.00 in
16:31 58.6 °F 37.3 °F 30.14 in Calm     45 % 0.00 in
16:32 58.5 °F 37.2 °F 30.13 in Calm     45 % 0.00 in
16:36 58.2 °F 38.1 °F 30.13 in Calm     47 % 0.00 in
16:41 57.5 °F 37.9 °F 30.14 in Calm     48 % 0.00 in
16:42 57.3 °F 38.3 °F 30.14 in Calm     49 % 0.00 in
16:47 56.8 °F 37.3 °F 30.14 in Calm     48 % 0.00 in
16:48 56.8 °F 37.3 °F 30.14 in Calm     48 % 0.00 in
16:53 56.5 °F 37.6 °F 30.14 in Calm     49 % 0.00 in
16:55 56.4 °F 38.0 °F 30.14 in Calm     50 % 0.00 in
16:58 56.1 °F 37.7 °F 30.13 in Calm     50 % 0.00 in
17:02 55.5 °F 37.1 °F 30.14 in Calm     50 % 0.00 in
17:07 54.7 °F 37.4 °F 30.14 in Calm     52 % 0.00 in
17:08 54.6 °F 37.3 °F 30.14 in Calm     52 % 0.00 in
17:13 54.2 °F 37.9 °F 30.14 in Calm     54 % 0.00 in
17:14 54.1 °F 37.8 °F 30.14 in Calm     54 % 0.00 in
17:19 53.6 °F 37.3 °F 30.13 in Calm     54 % 0.00 in
17:21 53.3 °F 38.0 °F 30.13 in Calm     56 % 0.00 in
17:24 53.0 °F 37.7 °F 30.14 in Calm     56 % 0.00 in
17:29 52.4 °F 37.2 °F 30.14 in Calm     56 % 0.00 in
17:34 51.9 °F 37.6 °F 30.14 in Calm     58 % 0.00 in
17:35 51.7 °F 37.4 °F 30.14 in Calm     58 % 0.00 in
17:36 51.7 °F 37.4 °F 30.14 in Calm     58 % 0.00 in
17:41 51.0 °F 37.2 °F 30.14 in Calm     59 % 0.00 in
17:45 50.5 °F 37.1 °F 30.14 in Calm     60 % 0.00 in
17:46 50.5 °F 37.1 °F 30.14 in Calm     60 % 0.00 in
17:51 50.2 °F 37.7 °F 30.14 in Calm     62 % 0.00 in
17:52 50.1 °F 37.2 °F 30.14 in Calm     61 % 0.00 in
17:57 49.7 °F 36.4 °F 30.14 in Calm     60 % 0.00 in
17:58 49.7 °F 36.4 °F 30.14 in Calm     60 % 0.00 in
18:03 49.3 °F 36.4 °F 30.14 in Calm     61 % 0.00 in
18:07 49.0 °F 36.5 °F 30.14 in Calm     62 % 0.00 in
18:08 49.0 °F 36.5 °F 30.14 in Calm     62 % 0.00 in
18:12 49.1 °F 36.6 °F 30.14 in Calm     62 % 0.00 in
18:15 49.0 °F 36.5 °F 30.15 in Calm     62 % 0.00 in
18:19 48.7 °F 37.1 °F 30.15 in Calm     64 % 0.00 in
18:24 48.1 °F 37.3 °F 30.15 in Calm     66 % 0.00 in
18:26 48.0 °F 37.2 °F 30.15 in Calm     66 % 0.00 in
18:30 47.7 °F 37.3 °F 30.15 in Calm     67 % 0.00 in
18:35 47.3 °F 36.5 °F 30.15 in Calm     66 % 0.00 in
18:36 47.2 °F 36.8 °F 30.15 in Calm     67 % 0.00 in
18:40 46.9 °F 36.9 °F 30.15 in Calm     68 % 0.00 in
18:42 46.8 °F 36.8 °F 30.15 in Calm     68 % 0.00 in
18:47 46.7 °F 36.3 °F 30.14 in Calm     67 % 0.00 in
18:48 46.7 °F 35.9 °F 30.14 in Calm     66 % 0.00 in
18:53 46.9 °F 36.1 °F 30.14 in Calm     66 % 0.00 in
18:54 47.0 °F 36.2 °F 30.14 in Calm     66 % 0.00 in
18:55 47.1 °F 36.3 °F 30.14 in Calm     66 % 0.00 in
19:00 47.1 °F 35.9 °F 30.15 in Calm     65 % 0.00 in
19:01 47.1 °F 35.9 °F 30.15 in Calm     65 % 0.00 in
19:06 47.1 °F 36.3 °F 30.15 in Calm     66 % 0.00 in
19:08 47.1 °F 36.3 °F 30.15 in Calm     66 % 0.00 in
19:15 45.6 °F 36.0 °F 30.15 in Calm     69 % 0.00 in
19:20 44.9 °F 36.1 °F 30.15 in Calm     71 % 0.00 in
19:23 44.7 °F 35.9 °F 30.15 in Calm     71 % 0.00 in
19:26 44.6 °F 36.1 °F 30.15 in Calm     72 % 0.00 in
19:29 44.5 °F 36.0 °F 30.15 in Calm     72 % 0.00 in
19:34 44.2 °F 36.1 °F 30.15 in Calm     73 % 0.00 in
19:37 43.9 °F 36.5 °F 30.15 in Calm     75 % 0.00 in
19:40 43.6 °F 36.2 °F 30.15 in Calm     75 % 0.00 in
19:45 43.3 °F 36.2 °F 30.15 in Calm     76 % 0.00 in
19:50 43.1 °F 36.0 °F 30.15 in Calm     76 % 0.00 in
19:52 43.0 °F 36.3 °F 30.16 in Calm     77 % 0.00 in
19:57 42.9 °F 36.2 °F 30.15 in Calm     77 % 0.00 in
20:02 42.8 °F 36.4 °F 30.16 in Calm     78 % 0.00 in
20:07 42.8 °F 36.4 °F 30.16 in Calm     78 % 0.00 in
20:12 42.9 °F 36.5 °F 30.16 in Calm     78 % 0.00 in
20:17 42.7 °F 36.0 °F 30.16 in Calm     77 % 0.00 in
20:21 42.8 °F 35.8 °F 30.16 in Calm     76 % 0.00 in
20:24 42.7 °F 35.7 °F 30.16 in Calm     76 % 0.00 in
21:30 41.2 °F 34.9 °F 30.16 in Calm     78 % 0.00 in
21:31 41.2 °F 34.9 °F 30.16 in Calm     78 % 0.00 in
21:36 41.0 °F 35.0 °F 30.16 in Calm     79 % 0.00 in
21:37 41.0 °F 35.0 °F 30.16 in Calm     79 % 0.00 in
21:42 40.8 °F 34.8 °F 30.16 in Calm     79 % 0.00 in
21:43 40.8 °F 34.8 °F 30.16 in Calm     79 % 0.00 in
21:48 40.7 °F 34.7 °F 30.16 in Calm     79 % 0.00 in
21:49 40.7 °F 34.7 °F 30.16 in Calm     79 % 0.00 in
21:54 40.6 °F 34.9 °F 30.16 in Calm     80 % 0.00 in
21:56 40.7 °F 35.0 °F 30.16 in Calm     80 % 0.00 in
22:01 41.3 °F 35.3 °F 30.16 in Calm     79 % 0.00 in
22:02 41.4 °F 35.4 °F 30.16 in Calm     79 % 0.00 in
22:13 42.2 °F 35.2 °F 30.15 in Calm     76 % 0.00 in
22:14 42.2 °F 35.2 °F 30.15 in Calm     76 % 0.00 in
22:19 42.6 °F 35.2 °F 30.15 in Calm     75 % 0.00 in
22:21 42.6 °F 34.9 °F 30.15 in Calm     74 % 0.00 in
22:26 42.5 °F 35.1 °F 30.15 in Calm     75 % 0.00 in
22:28 42.4 °F 35.0 °F 30.15 in Calm     75 % 0.00 in
22:32 42.3 °F 34.9 °F 30.16 in Calm     75 % 0.00 in
22:37 42.2 °F 34.8 °F 30.16 in Calm     75 % 0.00 in
22:39 42.2 °F 34.8 °F 30.16 in Calm     75 % 0.00 in
22:44 42.3 °F 34.9 °F 30.16 in Calm     75 % 0.00 in
22:49 42.2 °F 34.8 °F 30.16 in Calm     75 % 0.00 in
22:55 42.1 °F 35.4 °F 30.16 in Calm     77 % 0.00 in
23:00 41.9 °F 35.5 °F 30.16 in Calm     78 % 0.00 in
23:01 41.9 °F 35.5 °F 30.16 in Calm     78 % 0.00 in
23:02 41.9 °F 35.5 °F 30.16 in Calm     78 % 0.00 in
23:07 41.6 °F 35.2 °F 30.16 in Calm     78 % 0.00 in
23:12 41.1 °F 35.4 °F 30.16 in Calm     80 % 0.00 in
23:15 41.0 °F 35.3 °F 30.16 in Calm     80 % 0.00 in
23:20 40.7 °F 35.3 °F 30.17 in Calm     81 % 0.00 in
23:21 40.7 °F 35.3 °F 30.17 in Calm     81 % 0.00 in
23:26 41.0 °F 35.6 °F 30.17 in Calm     81 % 0.00 in
23:32 41.5 °F 35.8 °F 30.16 in Calm     80 % 0.00 in
23:34 41.5 °F 35.8 °F 30.16 in Calm     80 % 0.00 in
23:37 41.6 °F 35.6 °F 30.16 in Calm     79 % 0.00 in
23:42 41.8 °F 35.4 °F 30.16 in Calm     78 % 0.00 in
23:47 41.8 °F 35.1 °F 30.16 in Calm     77 % 0.00 in
23:48 41.8 °F 35.1 °F 30.16 in Calm     77 % 0.00 in
23:53 41.8 °F 34.8 °F 30.16 in Calm     76 % 0.00 in
23:58 42.2 °F 34.8 °F 30.16 in Calm     75 % 0.00 in
Park Place, Exeter, Tulare County, California, USA
Compliments of Weather Underground - 3.25 mb